createdAt,value
2022-09-28T00:00:16.878Z,40.01
2022-09-28T00:01:50.612Z,40.00
2022-09-28T00:03:17.350Z,39.89
2022-09-28T00:04:25.347Z,39.69
2022-09-28T00:05:35.252Z,39.67
2022-09-28T00:06:43.826Z,39.52
2022-09-28T00:07:52.446Z,39.50
2022-09-28T00:09:02.702Z,39.44
2022-09-28T00:10:11.205Z,39.35
2022-09-28T00:11:21.921Z,39.43
2022-09-28T00:12:32.092Z,39.33
2022-09-28T00:13:39.676Z,39.24
2022-09-28T00:14:48.546Z,39.17
2022-09-28T00:16:06.981Z,38.96
2022-09-28T00:17:18.040Z,38.85
2022-09-28T00:18:25.689Z,38.88
2022-09-28T00:19:33.306Z,38.84
2022-09-28T00:20:41.542Z,38.71
2022-09-28T00:21:49.484Z,38.62
2022-09-28T00:22:56.965Z,38.51
2022-09-28T00:24:17.735Z,38.43
2022-09-28T00:25:29.292Z,38.39
2022-09-28T00:26:36.542Z,38.37
2022-09-28T00:27:45.607Z,38.20
2022-09-28T00:28:57.276Z,38.01
2022-09-28T00:30:08.557Z,37.88
2022-09-28T00:31:16.585Z,37.78
2022-09-28T00:32:26.089Z,37.87
2022-09-28T00:33:33.910Z,37.83
2022-09-28T00:34:44.468Z,37.80
2022-09-28T00:35:59.992Z,37.72
2022-09-28T00:37:07.958Z,37.61
2022-09-28T00:38:18.146Z,37.44
2022-09-28T00:39:28.584Z,37.29
2022-09-28T00:40:37.102Z,37.08
2022-09-28T00:41:44.907Z,36.86
2022-09-28T00:42:53.695Z,36.71
2022-09-28T00:44:41.615Z,36.63
2022-09-28T00:45:54.600Z,36.55
2022-09-28T00:47:05.146Z,36.47
2022-09-28T00:48:13.046Z,36.42
2022-09-28T00:49:21.886Z,36.45
2022-09-28T00:50:37.384Z,36.49
2022-09-28T00:51:45.437Z,36.51
2022-09-28T00:53:14.721Z,36.55
2022-09-28T00:54:23.986Z,36.62
2022-09-28T00:55:41.064Z,36.60
2022-09-28T00:56:49.205Z,36.57
2022-09-28T00:57:59.560Z,36.51
2022-09-28T00:59:07.330Z,36.47
2022-09-28T01:00:15.955Z,36.43
2022-09-28T01:01:24.216Z,36.37
2022-09-28T01:02:32.160Z,36.35
2022-09-28T01:03:43.018Z,36.29
2022-09-28T01:04:52.098Z,36.22
2022-09-28T01:06:01.642Z,36.11
2022-09-28T01:07:10.283Z,36.05
2022-09-28T01:08:18.037Z,35.97
2022-09-28T01:09:26.625Z,35.85
2022-09-28T01:10:34.819Z,35.75
2022-09-28T01:11:44.285Z,35.59
2022-09-28T01:12:52.562Z,35.48
2022-09-28T01:14:04.661Z,35.32
2022-09-28T01:15:15.318Z,35.10
2022-09-28T01:16:40.218Z,34.91
2022-09-28T01:18:20.070Z,34.62
2022-09-28T01:19:57.641Z,34.40
2022-09-28T01:21:25.307Z,34.15
2022-09-28T01:23:15.105Z,33.93
2022-09-28T01:24:42.813Z,33.66
2022-09-28T01:26:20.539Z,33.48
2022-09-28T01:28:06.974Z,33.29
2022-09-28T01:29:50.984Z,33.11
2022-09-28T01:31:09.277Z,32.94
2022-09-28T01:32:37.719Z,32.80
2022-09-28T01:33:59.325Z,32.68
2022-09-28T01:35:17.072Z,32.57
2022-09-28T01:36:39.072Z,32.46
2022-09-28T01:37:54.273Z,32.34
2022-09-28T01:39:12.974Z,32.23
2022-09-28T01:40:24.087Z,32.13
2022-09-28T01:41:34.583Z,32.03
2022-09-28T01:42:44.470Z,31.92
2022-09-28T01:43:59.456Z,31.83
2022-09-28T01:45:31.281Z,31.74
2022-09-28T01:46:50.967Z,31.63
2022-09-28T01:48:02.937Z,31.52
2022-09-28T01:49:22.435Z,31.43
2022-09-28T01:50:32.942Z,31.31
2022-09-28T01:51:56.600Z,31.19
2022-09-28T01:53:20.124Z,31.06
2022-09-28T01:54:39.295Z,30.94
2022-09-28T01:55:50.418Z,30.81
2022-09-28T01:57:08.517Z,30.70
2022-09-28T01:58:27.702Z,30.60
2022-09-28T01:59:38.864Z,30.51
2022-09-28T02:00:50.837Z,30.41
2022-09-28T02:02:09.933Z,30.33
2022-09-28T02:03:25.881Z,30.25
2022-09-28T02:04:49.716Z,30.15
2022-09-28T02:06:11.259Z,30.07
2022-09-28T02:07:44.876Z,29.98
2022-09-28T02:09:03.338Z,29.89
2022-09-28T02:10:44.831Z,29.81
2022-09-28T02:11:56.955Z,29.74
2022-09-28T02:13:12.295Z,29.67
2022-09-28T02:14:21.585Z,29.60
2022-09-28T02:15:44.857Z,29.55
2022-09-28T02:16:58.483Z,29.48
2022-09-28T02:18:13.405Z,29.41
2022-09-28T02:19:28.693Z,29.36
2022-09-28T02:20:42.086Z,29.30
2022-09-28T02:22:32.954Z,29.25
2022-09-28T02:23:43.944Z,29.15
2022-09-28T02:25:00.889Z,29.06
2022-09-28T02:26:11.464Z,29.01
2022-09-28T02:27:45.704Z,28.97
2022-09-28T02:28:55.151Z,28.93
2022-09-28T02:30:05.758Z,28.89
2022-09-28T02:31:17.423Z,28.85
2022-09-28T02:32:26.429Z,28.82
2022-09-28T02:33:40.244Z,28.79
2022-09-28T02:34:49.342Z,28.75
2022-09-28T02:36:01.327Z,28.74
2022-09-28T02:37:11.313Z,28.76
2022-09-28T02:38:22.345Z,28.81
2022-09-28T02:39:33.310Z,28.82
2022-09-28T02:40:42.433Z,28.82
2022-09-28T02:42:15.790Z,28.80
2022-09-28T02:43:27.676Z,28.79
2022-09-28T02:44:52.278Z,28.75
2022-09-28T02:46:26.001Z,28.72
2022-09-28T02:48:05.557Z,28.70
2022-09-28T02:49:28.338Z,28.68
2022-09-28T02:50:53.190Z,28.65
2022-09-28T02:52:33.030Z,28.61
2022-09-28T02:53:56.125Z,28.58
2022-09-28T02:55:06.985Z,28.53
2022-09-28T02:56:39.087Z,28.50
2022-09-28T02:58:11.339Z,28.45
2022-09-28T02:59:28.886Z,28.38
2022-09-28T03:00:43.302Z,28.33
2022-09-28T03:02:16.742Z,28.28
2022-09-28T03:04:18.974Z,28.22
2022-09-28T03:06:02.728Z,28.11
2022-09-28T03:07:40.982Z,28.02
2022-09-28T03:09:10.331Z,27.95
2022-09-28T03:10:25.275Z,27.88
2022-09-28T03:11:40.460Z,27.82
2022-09-28T03:12:49.547Z,27.77
2022-09-28T03:14:00.099Z,27.74
2022-09-28T03:15:24.824Z,27.72
2022-09-28T03:16:34.981Z,27.68
2022-09-28T03:17:43.065Z,27.63
2022-09-28T03:18:55.475Z,27.59
2022-09-28T03:20:07.450Z,27.56
2022-09-28T03:21:17.244Z,27.51
2022-09-28T03:22:26.813Z,27.45
2022-09-28T03:23:35.509Z,27.40
2022-09-28T03:24:43.833Z,27.35
2022-09-28T03:25:51.805Z,27.31
2022-09-28T03:27:00.909Z,27.30
2022-09-28T03:28:13.112Z,27.28
2022-09-28T03:29:22.675Z,27.26
2022-09-28T03:30:37.476Z,27.22
2022-09-28T03:31:46.482Z,27.18
2022-09-28T03:33:04.815Z,27.15
2022-09-28T03:34:14.639Z,27.12
2022-09-28T03:35:25.706Z,27.10
2022-09-28T03:36:35.392Z,27.08
2022-09-28T03:37:45.709Z,27.07
2022-09-28T03:39:01.963Z,27.06
2022-09-28T03:40:12.159Z,27.05
2022-09-28T03:41:21.862Z,27.04
2022-09-28T03:42:33.092Z,27.02
2022-09-28T03:43:42.581Z,27.00
2022-09-28T03:44:52.320Z,26.99
2022-09-28T03:46:02.317Z,26.98
2022-09-28T03:47:12.689Z,26.98
2022-09-28T03:48:31.905Z,26.96
2022-09-28T03:49:43.742Z,26.95
2022-09-28T03:51:00.146Z,26.91
2022-09-28T03:52:10.365Z,26.86
2022-09-28T03:53:22.246Z,26.83
2022-09-28T03:54:32.609Z,26.80
2022-09-28T03:55:40.930Z,26.76
2022-09-28T03:56:53.289Z,26.71
2022-09-28T03:58:04.261Z,26.65
2022-09-28T03:59:19.849Z,26.61
2022-09-28T04:00:34.084Z,26.56
2022-09-28T04:01:43.675Z,26.51
2022-09-28T04:02:53.298Z,26.47
2022-09-28T04:04:04.944Z,26.45
2022-09-28T04:05:13.964Z,26.45
2022-09-28T04:06:24.381Z,26.44
2022-09-28T04:07:34.380Z,26.42
2022-09-28T04:08:45.230Z,26.38
2022-09-28T04:09:53.490Z,26.34
2022-09-28T04:11:08.980Z,26.31
2022-09-28T04:12:22.084Z,26.26
2022-09-28T04:13:31.869Z,26.23
2022-09-28T04:14:40.232Z,26.21
2022-09-28T04:16:01.895Z,26.20
2022-09-28T04:17:13.700Z,26.18
2022-09-28T04:18:22.935Z,26.18
2022-09-28T04:19:51.605Z,26.18
2022-09-28T04:21:22.738Z,26.20
2022-09-28T04:22:39.151Z,26.22
2022-09-28T04:23:47.153Z,26.25
2022-09-28T04:24:56.417Z,26.29
2022-09-28T04:26:07.023Z,26.31
2022-09-28T04:27:37.253Z,26.31
2022-09-28T04:29:06.781Z,26.30
2022-09-28T04:30:20.862Z,26.28
2022-09-28T04:31:32.405Z,26.27
2022-09-28T04:32:40.703Z,26.24
2022-09-28T04:33:52.208Z,26.22
2022-09-28T04:35:01.044Z,26.20
2022-09-28T04:36:11.162Z,26.19
2022-09-28T04:37:21.671Z,26.19
2022-09-28T04:38:51.620Z,26.19
2022-09-28T04:40:06.318Z,26.21
2022-09-28T04:41:15.131Z,26.24
2022-09-28T04:42:24.052Z,26.26
2022-09-28T04:43:36.103Z,26.29
2022-09-28T04:44:43.711Z,26.33
2022-09-28T04:45:53.416Z,26.39
2022-09-28T04:47:05.436Z,26.42
2022-09-28T04:48:14.665Z,26.45
2022-09-28T04:49:44.765Z,26.48
2022-09-28T04:51:01.515Z,26.49
2022-09-28T04:52:15.808Z,26.49
2022-09-28T04:53:32.332Z,26.47
2022-09-28T04:54:43.471Z,26.43
2022-09-28T04:56:07.828Z,26.43
2022-09-28T04:57:19.891Z,26.43
2022-09-28T04:58:28.172Z,26.45
2022-09-28T04:59:39.770Z,26.46
2022-09-28T05:00:53.284Z,26.46
2022-09-28T05:02:31.359Z,26.40
2022-09-28T05:04:03.526Z,26.33
2022-09-28T05:05:32.183Z,26.26
2022-09-28T05:07:02.920Z,26.20
2022-09-28T05:08:15.349Z,26.16
2022-09-28T05:09:25.067Z,26.11
2022-09-28T05:10:36.561Z,26.06
2022-09-28T05:11:45.479Z,26.00
2022-09-28T05:12:59.074Z,25.95
2022-09-28T05:14:12.659Z,25.90
2022-09-28T05:15:23.392Z,25.84
2022-09-28T05:16:35.279Z,25.79
2022-09-28T05:18:15.963Z,25.76
2022-09-28T05:19:36.560Z,25.72
2022-09-28T05:20:44.872Z,25.70
2022-09-28T05:21:53.259Z,25.68
2022-09-28T05:23:02.401Z,25.65
2022-09-28T05:24:12.965Z,25.63
2022-09-28T05:25:23.392Z,25.61
2022-09-28T05:26:45.437Z,25.60
2022-09-28T05:27:59.753Z,25.59
2022-09-28T05:29:37.900Z,25.54
2022-09-28T05:31:20.578Z,25.48
2022-09-28T05:32:57.648Z,25.42
2022-09-28T05:34:24.600Z,25.36
2022-09-28T05:35:38.142Z,25.32
2022-09-28T05:36:47.436Z,25.29
2022-09-28T05:37:56.899Z,25.25
2022-09-28T05:39:06.482Z,25.21
2022-09-28T05:40:18.385Z,25.17
2022-09-28T05:41:27.806Z,25.12
2022-09-28T05:42:36.783Z,25.07
2022-09-28T05:43:45.532Z,25.04
2022-09-28T05:44:55.037Z,25.00
2022-09-28T05:46:04.197Z,24.98
2022-09-28T05:47:13.472Z,24.96
2022-09-28T05:48:23.378Z,24.94
2022-09-28T05:49:33.463Z,24.91
2022-09-28T05:50:41.980Z,24.88
2022-09-28T05:51:49.994Z,24.84
2022-09-28T05:53:02.479Z,24.82
2022-09-28T05:54:12.880Z,24.78
2022-09-28T05:55:25.703Z,24.74
2022-09-28T05:56:34.529Z,24.70
2022-09-28T05:57:46.068Z,24.66
2022-09-28T05:58:57.745Z,24.62
2022-09-28T06:00:13.674Z,24.58
2022-09-28T06:01:24.179Z,24.54
2022-09-28T06:02:33.290Z,24.50
2022-09-28T06:03:42.149Z,24.46
2022-09-28T06:04:52.881Z,24.43
2022-09-28T06:06:05.555Z,24.38
2022-09-28T06:07:14.355Z,24.34
2022-09-28T06:08:24.452Z,24.29
2022-09-28T06:09:43.975Z,24.23
2022-09-28T06:11:14.811Z,24.17
2022-09-28T06:12:27.542Z,24.11
2022-09-28T06:13:42.222Z,24.08
2022-09-28T06:14:54.232Z,24.05
2022-09-28T06:16:09.722Z,24.02
2022-09-28T06:17:20.831Z,24.00
2022-09-28T06:18:38.619Z,23.95
2022-09-28T06:20:08.809Z,23.90
2022-09-28T06:21:38.703Z,23.86
2022-09-28T06:22:47.437Z,23.83
2022-09-28T06:23:59.647Z,23.80
2022-09-28T06:25:09.456Z,23.77
2022-09-28T06:26:19.861Z,23.75
2022-09-28T06:27:31.863Z,23.73
2022-09-28T06:28:40.029Z,23.72
2022-09-28T06:29:48.225Z,23.72
2022-09-28T06:30:57.044Z,23.72
2022-09-28T06:32:09.590Z,23.71
2022-09-28T06:33:21.131Z,23.73
2022-09-28T06:34:32.172Z,23.73
2022-09-28T06:35:43.914Z,23.73
2022-09-28T06:36:52.925Z,23.73
2022-09-28T06:38:02.523Z,23.72
2022-09-28T06:39:12.149Z,23.73
2022-09-28T06:40:25.038Z,23.75
2022-09-28T06:41:35.531Z,23.75
2022-09-28T06:43:12.086Z,23.76
2022-09-28T06:44:41.560Z,23.75
2022-09-28T06:46:24.378Z,23.74
2022-09-28T06:47:59.227Z,23.75
2022-09-28T06:49:19.565Z,23.76
2022-09-28T06:50:48.888Z,23.75
2022-09-28T06:52:17.394Z,23.72
2022-09-28T06:53:46.628Z,23.68
2022-09-28T06:55:13.994Z,23.66
2022-09-28T06:56:29.395Z,23.69
2022-09-28T06:57:42.460Z,23.70
2022-09-28T06:58:51.371Z,23.73
2022-09-28T07:00:00.913Z,23.77
2022-09-28T07:01:12.064Z,23.79
2022-09-28T07:02:39.223Z,23.80
2022-09-28T07:04:12.162Z,23.77
2022-09-28T07:05:44.953Z,23.73
2022-09-28T07:07:13.724Z,23.69
2022-09-28T07:09:07.723Z,23.63
2022-09-28T07:10:44.529Z,23.54
2022-09-28T07:12:15.509Z,23.47
2022-09-28T07:13:49.877Z,23.44
2022-09-28T07:15:03.837Z,23.42
2022-09-28T07:16:14.820Z,23.42
2022-09-28T07:17:26.208Z,23.41
2022-09-28T07:18:37.167Z,23.39
2022-09-28T07:19:45.505Z,23.35
2022-09-28T07:20:55.883Z,23.31
2022-09-28T07:22:07.690Z,23.27
2022-09-28T07:23:19.679Z,23.23
2022-09-28T07:24:49.282Z,23.18
2022-09-28T07:26:24.346Z,23.12
2022-09-28T07:28:02.137Z,23.06
2022-09-28T07:29:31.694Z,22.98
2022-09-28T07:31:05.033Z,22.90
2022-09-28T07:32:27.386Z,22.84
2022-09-28T07:33:43.642Z,22.80
2022-09-28T07:35:02.427Z,22.77
2022-09-28T07:36:36.532Z,22.72
2022-09-28T07:37:44.745Z,22.69
2022-09-28T07:38:53.369Z,22.65
2022-09-28T07:40:23.560Z,22.59
2022-09-28T07:41:35.528Z,22.55
2022-09-28T07:42:52.327Z,22.53
2022-09-28T07:44:08.786Z,22.51
2022-09-28T07:45:22.543Z,22.47
2022-09-28T07:46:33.518Z,22.43
2022-09-28T07:47:49.602Z,22.40
2022-09-28T07:49:24.357Z,22.34
2022-09-28T07:51:01.632Z,22.29
2022-09-28T07:52:19.101Z,22.27
2022-09-28T07:54:05.845Z,22.27
2022-09-28T07:55:28.048Z,22.28
2022-09-28T07:56:50.449Z,22.27
2022-09-28T07:58:23.102Z,22.24
2022-09-28T07:59:43.193Z,22.22
2022-09-28T08:01:14.615Z,22.19
2022-09-28T08:02:24.307Z,22.15
2022-09-28T08:03:33.529Z,22.13
2022-09-28T08:04:43.128Z,22.11
2022-09-28T08:05:51.300Z,22.10
2022-09-28T08:07:02.168Z,22.10
2022-09-28T08:08:11.903Z,22.07
2022-09-28T08:09:21.243Z,22.05
2022-09-28T08:10:52.576Z,22.03
2022-09-28T08:12:24.570Z,22.01
2022-09-28T08:13:49.461Z,21.98
2022-09-28T08:15:19.164Z,21.95
2022-09-28T08:18:07.343Z,21.98
2022-09-28T08:19:17.408Z,22.01
2022-09-28T08:20:48.097Z,22.04
2022-09-28T08:22:00.468Z,22.06
2022-09-28T08:23:10.822Z,22.08
2022-09-28T08:24:22.497Z,22.09
2022-09-28T08:25:33.930Z,22.11
2022-09-28T08:26:44.988Z,22.12
2022-09-28T08:27:57.825Z,22.12
2022-09-28T08:29:08.174Z,22.12
2022-09-28T08:30:40.269Z,22.11
2022-09-28T08:32:23.897Z,22.09
2022-09-28T08:33:55.999Z,22.06
2022-09-28T08:35:27.838Z,22.02
2022-09-28T08:37:06.862Z,21.99
2022-09-28T08:38:34.725Z,21.98
2022-09-28T08:40:04.863Z,21.98
2022-09-28T08:41:51.169Z,21.99
2022-09-28T08:43:32.930Z,22.02
2022-09-28T08:45:00.519Z,22.05
2022-09-28T08:46:47.305Z,22.05
2022-09-28T08:48:45.705Z,22.06
2022-09-28T08:50:29.431Z,22.08
2022-09-28T08:51:52.138Z,22.09
2022-09-28T08:53:27.532Z,22.11
2022-09-28T08:54:50.818Z,22.15
2022-09-28T08:56:13.731Z,22.17
2022-09-28T08:57:25.727Z,22.17
2022-09-28T08:58:45.551Z,22.16
2022-09-28T09:00:01.701Z,22.15
2022-09-28T09:01:18.361Z,22.13
2022-09-28T09:02:27.005Z,22.12
2022-09-28T09:03:47.880Z,22.12
2022-09-28T09:05:17.419Z,22.10
2022-09-28T09:06:54.518Z,22.07
2022-09-28T09:08:38.248Z,22.03
2022-09-28T09:10:28.486Z,21.99
2022-09-28T09:12:15.665Z,21.91
2022-09-28T09:13:47.762Z,21.86
2022-09-28T09:15:07.503Z,21.81
2022-09-28T09:16:39.651Z,21.79
2022-09-28T09:18:26.782Z,21.75
2022-09-28T09:19:57.688Z,21.71
2022-09-28T09:21:36.582Z,21.68
2022-09-28T09:23:03.642Z,21.66
2022-09-28T09:24:35.813Z,21.62
2022-09-28T09:25:57.672Z,21.56
2022-09-28T09:27:14.089Z,21.52
2022-09-28T09:28:46.846Z,21.49
2022-09-28T09:30:23.889Z,21.46
2022-09-28T09:31:52.987Z,21.43
2022-09-28T09:33:07.011Z,21.41
2022-09-28T09:34:34.024Z,21.39
2022-09-28T09:36:27.858Z,21.38
2022-09-28T09:38:24.177Z,21.37
2022-09-28T09:40:06.168Z,21.33
2022-09-28T09:42:13.967Z,21.29
2022-09-28T09:44:20.359Z,21.26
2022-09-28T09:45:44.707Z,21.22
2022-09-28T09:47:17.877Z,21.20
2022-09-28T09:49:07.668Z,21.18
2022-09-28T09:50:41.043Z,21.15
2022-09-28T09:52:28.230Z,21.13
2022-09-28T09:53:51.393Z,21.09
2022-09-28T09:55:30.081Z,21.02
2022-09-28T09:57:28.992Z,20.95
2022-09-28T09:58:59.532Z,20.90
2022-09-28T10:00:19.285Z,20.88
2022-09-28T10:01:38.804Z,20.83
2022-09-28T10:02:58.284Z,20.79
2022-09-28T10:04:37.613Z,20.77
2022-09-28T10:06:03.345Z,20.79
2022-09-28T10:07:16.091Z,20.82
2022-09-28T10:08:25.356Z,20.85
2022-09-28T10:09:57.940Z,20.87
2022-09-28T10:11:32.435Z,20.89
2022-09-28T10:12:40.846Z,20.88
2022-09-28T10:13:52.799Z,20.87
2022-09-28T10:15:34.268Z,20.83
2022-09-28T10:16:57.398Z,20.79
2022-09-28T10:18:28.239Z,20.76
2022-09-28T10:19:57.487Z,20.73
2022-09-28T10:21:30.414Z,20.70
2022-09-28T10:22:41.614Z,20.67
2022-09-28T10:23:57.251Z,20.66
2022-09-28T10:25:11.794Z,20.64
2022-09-28T10:26:28.219Z,20.62
2022-09-28T10:27:42.365Z,20.60
2022-09-28T10:29:03.405Z,20.57
2022-09-28T10:30:26.327Z,20.52
2022-09-28T10:31:55.071Z,20.47
2022-09-28T10:33:36.385Z,20.41
2022-09-28T10:34:48.735Z,20.34
2022-09-28T10:36:07.366Z,20.28
2022-09-28T10:37:16.347Z,20.25
2022-09-28T10:38:50.100Z,20.21
2022-09-28T10:40:33.455Z,20.19
2022-09-28T10:41:52.623Z,20.19
2022-09-28T10:43:35.243Z,20.22
2022-09-28T10:45:22.558Z,20.25
2022-09-28T10:46:31.477Z,20.30
2022-09-28T10:47:40.372Z,20.34
2022-09-28T10:49:05.867Z,20.36
2022-09-28T10:50:33.418Z,20.39
2022-09-28T10:51:58.295Z,20.41
2022-09-28T10:53:22.901Z,20.40
2022-09-28T10:54:58.394Z,20.43
2022-09-28T10:56:25.207Z,20.43
2022-09-28T10:57:41.596Z,20.44
2022-09-28T10:58:50.001Z,20.45
2022-09-28T11:00:09.400Z,20.47
2022-09-28T11:01:25.773Z,20.50
2022-09-28T11:02:36.906Z,20.52
2022-09-28T11:04:07.951Z,20.52
2022-09-28T11:05:24.531Z,20.51
2022-09-28T11:06:41.179Z,20.48
2022-09-28T11:07:50.126Z,20.46
2022-09-28T11:09:03.145Z,20.44
2022-09-28T11:10:22.046Z,20.42
2022-09-28T11:11:34.580Z,20.39
2022-09-28T11:12:46.683Z,20.36
2022-09-28T11:14:02.321Z,20.34
2022-09-28T11:15:36.764Z,20.31
2022-09-28T11:16:45.215Z,20.27
2022-09-28T11:17:54.657Z,20.24
2022-09-28T11:19:26.171Z,20.20
2022-09-28T11:20:37.832Z,20.15
2022-09-28T11:21:47.771Z,20.11
2022-09-28T11:23:00.170Z,20.08
2022-09-28T11:24:27.188Z,20.04
2022-09-28T11:25:39.665Z,19.99
2022-09-28T11:26:55.142Z,19.95
2022-09-28T11:28:06.219Z,19.91
2022-09-28T11:29:37.401Z,19.87
2022-09-28T11:31:05.140Z,19.86
2022-09-28T11:32:20.921Z,19.87
2022-09-28T11:33:51.139Z,19.88
2022-09-28T11:36:07.767Z,19.89
2022-09-28T11:37:39.932Z,19.90
2022-09-28T11:39:25.076Z,19.90
2022-09-28T11:40:50.863Z,19.90
2022-09-28T11:42:17.922Z,19.91
2022-09-28T11:43:27.355Z,19.89
2022-09-28T11:45:22.118Z,19.88
2022-09-28T11:46:41.665Z,19.88
2022-09-28T11:48:04.427Z,19.87
2022-09-28T11:49:29.457Z,19.85
2022-09-28T11:50:46.592Z,19.83
2022-09-28T11:51:58.858Z,19.80
2022-09-28T11:53:18.709Z,19.77
2022-09-28T11:54:30.657Z,19.75
2022-09-28T11:55:57.635Z,19.73
2022-09-28T11:57:06.765Z,19.70
2022-09-28T11:58:26.572Z,19.68
2022-09-28T11:59:36.979Z,19.66
2022-09-28T12:01:02.277Z,19.63
2022-09-28T12:02:55.864Z,19.59
2022-09-28T12:04:28.333Z,19.56
2022-09-28T12:05:42.446Z,19.54
2022-09-28T12:07:13.074Z,19.52
2022-09-28T12:08:29.377Z,19.49
2022-09-28T12:10:15.640Z,19.45
2022-09-28T12:11:37.898Z,19.42
2022-09-28T12:13:06.214Z,19.41
2022-09-28T12:14:37.364Z,19.40
2022-09-28T12:16:23.484Z,19.42
2022-09-28T12:17:53.260Z,19.45
2022-09-28T12:19:29.122Z,19.50
2022-09-28T12:20:41.843Z,19.56
2022-09-28T12:22:00.547Z,19.61
2022-09-28T12:23:24.464Z,19.63
2022-09-28T12:24:44.345Z,19.64
2022-09-28T12:25:57.660Z,19.63
2022-09-28T12:27:16.355Z,19.63
2022-09-28T12:28:29.580Z,19.61
2022-09-28T12:29:51.833Z,19.58
2022-09-28T12:31:03.380Z,19.54
2022-09-28T12:32:18.106Z,19.53
2022-09-28T12:33:27.179Z,19.54
2022-09-28T12:34:36.167Z,19.57
2022-09-28T12:35:57.540Z,19.60
2022-09-28T12:37:35.692Z,19.63
2022-09-28T12:39:27.186Z,19.69
2022-09-28T12:40:56.490Z,19.71
2022-09-28T12:42:25.501Z,19.70
2022-09-28T12:43:50.228Z,19.70
2022-09-28T12:45:42.888Z,19.71
2022-09-28T12:47:34.488Z,19.76
2022-09-28T12:49:21.656Z,19.78
2022-09-28T12:50:38.530Z,19.79
2022-09-28T12:52:04.304Z,19.80
2022-09-28T12:53:51.719Z,19.78
2022-09-28T12:55:21.616Z,19.74
2022-09-28T12:56:58.203Z,19.72
2022-09-28T12:58:28.436Z,19.69
2022-09-28T12:59:55.836Z,19.66
2022-09-28T13:01:52.893Z,19.60
2022-09-28T13:03:22.721Z,19.54
2022-09-28T13:04:49.114Z,19.52
2022-09-28T13:06:33.718Z,19.49
2022-09-28T13:08:05.554Z,19.46
2022-09-28T13:09:21.777Z,19.41
2022-09-28T13:10:48.089Z,19.38
2022-09-28T13:12:17.290Z,19.33
2022-09-28T13:13:33.281Z,19.29
2022-09-28T13:15:10.802Z,19.26
2022-09-28T13:16:37.137Z,19.23
2022-09-28T13:18:18.200Z,19.22
2022-09-28T13:19:48.165Z,19.19
2022-09-28T13:21:13.023Z,19.17
2022-09-28T13:22:31.833Z,19.14
2022-09-28T13:23:47.448Z,19.11
2022-09-28T13:24:57.096Z,19.08
2022-09-28T13:26:31.062Z,19.06
2022-09-28T13:28:04.660Z,19.04
2022-09-28T13:29:15.880Z,19.03
2022-09-28T13:30:25.475Z,19.06
2022-09-28T13:31:37.151Z,19.10
2022-09-28T13:32:49.202Z,19.13
2022-09-28T13:33:57.376Z,19.16
2022-09-28T13:35:08.254Z,19.18
2022-09-28T13:36:35.571Z,19.20
2022-09-28T13:37:46.828Z,19.20
2022-09-28T13:38:57.694Z,19.21
2022-09-28T13:40:08.093Z,19.21
2022-09-28T13:41:17.769Z,19.23
2022-09-28T13:42:31.432Z,19.24
2022-09-28T13:44:14.518Z,19.26
2022-09-28T13:45:36.781Z,19.29
2022-09-28T13:46:53.760Z,19.33
2022-09-28T13:48:30.035Z,19.37
2022-09-28T13:49:48.432Z,19.40
2022-09-28T13:51:41.805Z,19.42
2022-09-28T13:53:22.107Z,19.43
2022-09-28T13:55:10.012Z,19.45
2022-09-28T13:56:37.295Z,19.46
2022-09-28T13:57:59.526Z,19.48
2022-09-28T13:59:19.203Z,19.53
2022-09-28T14:00:51.945Z,19.57
2022-09-28T14:02:20.050Z,19.61
2022-09-28T14:04:07.673Z,19.67
2022-09-28T14:05:40.240Z,19.77
2022-09-28T14:06:59.620Z,19.95
2022-09-28T14:08:26.437Z,20.16
2022-09-28T14:10:11.712Z,20.45
2022-09-28T14:11:27.915Z,20.78
2022-09-28T14:12:37.774Z,21.03
2022-09-28T14:13:46.881Z,21.19
2022-09-28T14:14:58.684Z,21.32
2022-09-28T14:16:26.154Z,21.45
2022-09-28T14:17:56.785Z,21.57
2022-09-28T14:19:18.351Z,21.70
2022-09-28T14:20:31.585Z,21.83
2022-09-28T14:22:05.703Z,21.91
2022-09-28T14:23:37.238Z,22.00
2022-09-28T14:25:01.585Z,22.09
2022-09-28T14:26:43.521Z,22.17
2022-09-28T14:28:15.892Z,22.29
2022-09-28T14:29:32.275Z,22.45
2022-09-28T14:30:46.583Z,22.68
2022-09-28T14:31:55.186Z,22.99
2022-09-28T14:33:05.364Z,23.31
2022-09-28T14:34:35.894Z,23.65
2022-09-28T14:35:51.393Z,24.03
2022-09-28T14:37:24.191Z,24.35
2022-09-28T14:39:13.017Z,24.72
2022-09-28T14:41:07.460Z,25.17
2022-09-28T14:42:24.207Z,25.74
2022-09-28T14:43:48.445Z,26.05
2022-09-28T14:45:09.925Z,26.42
2022-09-28T14:46:19.373Z,26.64
2022-09-28T14:47:38.050Z,26.78
2022-09-28T14:48:56.922Z,26.84
2022-09-28T14:50:26.210Z,26.88
2022-09-28T14:51:44.627Z,26.93
2022-09-28T14:53:15.653Z,27.06
2022-09-28T14:54:25.817Z,27.34
2022-09-28T14:55:52.672Z,27.66
2022-09-28T14:57:10.047Z,28.09
2022-09-28T14:58:24.218Z,28.50
2022-09-28T14:59:37.999Z,28.66
2022-09-28T15:00:46.106Z,28.86
2022-09-28T15:02:20.960Z,29.12
2022-09-28T15:03:32.728Z,29.54
2022-09-28T15:04:45.048Z,29.81
2022-09-28T15:05:57.028Z,29.98
2022-09-28T15:07:06.997Z,30.01
2022-09-28T15:08:17.751Z,30.00
2022-09-28T15:09:34.348Z,30.05
2022-09-28T15:10:52.096Z,30.12
2022-09-28T15:12:19.789Z,30.18
2022-09-28T15:13:30.749Z,30.20
2022-09-28T15:15:04.732Z,30.27
2022-09-28T15:16:25.559Z,30.35
2022-09-28T15:17:40.093Z,30.44
2022-09-28T15:19:35.637Z,30.51
2022-09-28T15:20:45.013Z,30.61
2022-09-28T15:21:55.193Z,30.73
2022-09-28T15:23:03.864Z,30.82
2022-09-28T15:24:37.134Z,30.79
2022-09-28T15:25:56.780Z,30.72
2022-09-28T15:27:13.140Z,30.74
2022-09-28T15:28:25.814Z,30.82
2022-09-28T15:29:35.803Z,30.92
2022-09-28T15:30:45.035Z,31.05
2022-09-28T15:31:55.304Z,31.25
2022-09-28T15:33:28.114Z,31.46
2022-09-28T15:34:53.369Z,31.55
2022-09-28T15:36:08.977Z,31.61
2022-09-28T15:37:23.727Z,31.82
2022-09-28T15:38:37.111Z,32.14
2022-09-28T15:39:49.818Z,32.49
2022-09-28T15:40:58.104Z,32.78
2022-09-28T15:42:08.647Z,33.04
2022-09-28T15:43:39.862Z,33.28
2022-09-28T15:45:16.984Z,33.47
2022-09-28T15:46:28.125Z,33.73
2022-09-28T15:47:37.108Z,34.00
2022-09-28T15:48:58.586Z,34.20
2022-09-28T15:50:32.042Z,34.40
2022-09-28T15:51:54.890Z,34.45
2022-09-28T15:53:07.723Z,34.43
2022-09-28T15:54:25.692Z,34.48
2022-09-28T15:55:44.511Z,34.52
2022-09-28T15:57:01.767Z,34.65
2022-09-28T15:58:26.535Z,34.71
2022-09-28T15:59:41.360Z,34.79
2022-09-28T16:00:50.697Z,34.94
2022-09-28T16:02:28.437Z,34.97
2022-09-28T16:03:37.590Z,35.01
2022-09-28T16:04:46.769Z,35.03
2022-09-28T16:06:01.705Z,34.95
2022-09-28T16:07:20.570Z,34.82
2022-09-28T16:08:45.667Z,34.64
2022-09-28T16:10:16.203Z,34.28
2022-09-28T16:11:29.542Z,33.70
2022-09-28T16:12:43.858Z,33.23
2022-09-28T16:13:59.018Z,32.91
2022-09-28T16:15:21.988Z,32.76
2022-09-28T16:16:47.889Z,32.57
2022-09-28T16:18:04.969Z,32.37
2022-09-28T16:19:38.907Z,32.30
2022-09-28T16:20:48.354Z,32.18
2022-09-28T16:21:57.523Z,32.05
2022-09-28T16:23:26.211Z,31.97
2022-09-28T16:24:39.056Z,31.92
2022-09-28T16:26:18.582Z,32.00
2022-09-28T16:27:42.243Z,31.90
2022-09-28T16:28:53.125Z,31.79
2022-09-28T16:30:23.452Z,31.67
2022-09-28T16:31:35.974Z,31.59
2022-09-28T16:32:54.466Z,31.53
2022-09-28T16:34:23.116Z,31.47
2022-09-28T16:35:52.513Z,31.27
2022-09-28T16:36:59.930Z,31.28
2022-09-28T16:38:17.260Z,31.45
2022-09-28T16:39:24.761Z,31.58
2022-09-28T16:40:32.242Z,31.65
2022-09-28T16:41:41.245Z,31.64
2022-09-28T16:42:49.443Z,31.64
2022-09-28T16:44:00.578Z,31.69
2022-09-28T16:45:10.043Z,31.71
2022-09-28T16:46:21.532Z,31.80
2022-09-28T16:47:35.891Z,31.88
2022-09-28T16:48:50.055Z,32.02
2022-09-28T16:49:57.551Z,32.07
2022-09-28T16:51:04.651Z,32.12
2022-09-28T16:52:14.442Z,32.35
2022-09-28T16:53:40.452Z,32.62
2022-09-28T16:55:22.773Z,32.87
2022-09-28T16:56:36.150Z,33.02
2022-09-28T16:57:47.217Z,33.08
2022-09-28T16:58:56.251Z,33.21
2022-09-28T17:00:03.920Z,33.38
2022-09-28T17:01:12.030Z,33.54
2022-09-28T17:02:45.259Z,33.71
2022-09-28T17:03:51.689Z,34.05
2022-09-28T17:04:59.639Z,34.36
2022-09-28T17:06:10.386Z,34.58
2022-09-28T17:07:17.812Z,34.88
2022-09-28T17:08:26.133Z,35.15
2022-09-28T17:09:33.784Z,35.33
2022-09-28T17:11:13.883Z,35.34
2022-09-28T17:12:30.439Z,35.07
2022-09-28T17:13:40.660Z,34.89